Latest Weather Observations for Dunalley

IDT60901

Issued at 5:11 pm EST Sunday 25 June 2017 (issued every 10 minutes, with the page automatically refreshed every 10 minutes)

About weather observations | Map of Hobart area stations | Latest observations for Hobart area | Other Formats
Station Details ID: 094254 Name: DUNALLEY (STROUD POINT) Lat: -42.90 Lon: 147.79 Height: 12.43 m
Data from the previous 72 hours. | See also: Recent months at Dunalley
Date/Time
EST
Temp
°C
App
Temp
°C
Dew
Point
°C
Rel
Hum
%
Delta-T
°C
Wind Press
QNH
hPa
Press
MSL
hPa
Rain since
9am
mm
Dir  Spd
km/h
Gust
km/h
Spd
kts
Gust
kts
25/05:00pm 9.9 3.3 4.1 67 2.6 W 28 43 15 23 1003.2 1003.2 0.0
25/04:30pm 10.3 4.0 4.0 65 2.8 WNW 26 37 14 20 1002.9 1002.9 0.0
25/04:00pm 10.5 5.4 4.0 64 2.9 WNW 20 30 11 16 1002.6 1002.6 0.0
25/03:30pm 10.9 5.4 3.9 62 3.1 WNW 22 33 12 18 1002.1 1002.1 0.0
25/03:00pm 11.2 5.4 4.4 63 3.1 NW 24 43 13 23 1001.8 1001.8 0.0
25/02:30pm 10.8 2.8 4.0 63 3.0 WNW 35 48 19 26 1001.3 1001.3 0.0
25/02:00pm 11.3 4.3 4.1 61 3.2 WNW 30 43 16 23 1001.3 1001.3 0.0
25/01:30pm 11.9 4.4 4.2 59 3.5 WNW 33 44 18 24 1001.3 1001.3 0.0
25/01:06pm 12.7 5.2 3.4 53 4.1 WNW 32 50 17 27 1001.3 1001.3 0.0
25/01:00pm 13.2 5.6 3.8 53 4.3 WNW 33 50 18 27 1001.3 1001.3 0.0
25/12:30pm 12.5 5.3 3.2 53 4.1 WNW 30 48 16 26 1001.4 1001.4 0.0
25/12:21pm 12.9 6.1 3.0 51 4.4 WNW 28 48 15 26 1001.5 1001.5 0.0
25/12:00pm 13.3 6.6 3.4 51 4.5 WNW 28 44 15 24 1001.9 1001.9 0.0
25/11:30am 12.0 8.6 4.0 58 3.6 N 11 24 6 13 1002.7 1002.7 0.0
25/11:00am 11.0 8.4 3.3 59 3.4 NNW 6 9 3 5 1002.8 1002.8 0.0
25/10:30am 10.2 6.6 2.8 60 3.2 NNW 11 19 6 10 1003.0 1003.0 0.0
25/10:00am 8.8 4.5 3.2 68 2.4 ENE 15 19 8 10 1003.5 1003.5 0.0
25/09:30am 9.9 7.1 2.3 59 3.2 NNW 6 7 3 4 1003.8 1003.8 0.0
25/09:00am 9.9 5.0 2.0 58 3.3 NNW 17 32 9 17 1004.0 1004.0 0.0
25/08:30am 9.8 5.7 2.2 59 3.2 NW 13 24 7 13 1004.1 1004.1 0.0
25/08:00am 9.5 5.0 2.1 60 3.1 NW 15 20 8 11 1004.2 1004.2 0.0
25/07:30am 9.2 5.9 2.3 62 2.9 NW 9 20 5 11 1004.6 1004.6 0.0
25/07:00am 7.5 4.8 2.8 72 2.0 NNE 6 11 3 6 1004.9 1004.9 0.0
25/06:30am 7.3 4.4 2.6 72 2.0 ENE 7 15 4 8 1004.8 1004.8 0.0
25/06:00am 7.7 5.3 2.4 69 2.2 NW 4 9 2 5 1004.8 1004.8 0.0
25/05:30am 7.8 5.3 1.4 64 2.6 NW 4 6 2 3 1004.9 1004.9 0.0
25/05:00am 8.4 5.3 1.6 62 2.8 NW 7 13 4 7 1005.1 1005.1 0.0
25/04:30am 8.3 5.5 2.1 65 2.6 N 6 15 3 8 1005.3 1005.3 0.0
25/04:00am 8.8 6.3 1.5 60 3.0 NW 4 17 2 9 1005.7 1005.7 0.0
25/03:30am 9.0 5.5 1.4 59 3.1 NW 9 17 5 9 1005.9 1005.9 0.0
25/03:00am 8.8 5.3 1.5 60 3.0 NW 9 15 5 8 1006.4 1006.4 0.0
25/02:30am 8.8 5.0 1.5 60 3.0 NW 11 19 6 10 1006.8 1006.8 0.0
25/02:00am 9.0 4.1 1.7 60 3.0 NW 17 28 9 15 1006.9 1006.9 0.0
25/01:30am 8.7 3.4 1.6 61 2.9 NW 19 33 10 18 1007.3 1007.3 0.0
25/01:00am 8.6 4.0 1.5 61 2.9 NW 15 26 8 14 1007.6 1007.6 0.0
25/12:30am 8.3 2.9 1.5 62 2.8 NW 19 28 10 15 1007.8 1007.8 0.0
25/12:00am 8.0 2.7 1.6 64 2.6 WNW 19 30 10 16 1008.1 1008.1 0.0
 
Date/Time
EST
Temp
°C
App
Temp
°C
Dew
Point
°C
Rel
Hum
%
Delta-T
°C
Wind Press
QNH
hPa
Press
MSL
hPa
Rain since
9am
mm
Dir  Spd
km/h
Gust
km/h
Spd
kts
Gust
kts
24/11:30pm 8.0 1.7 1.4 63 2.7 WNW 24 32 13 17 1008.3 1008.3 0.0
24/11:00pm 8.4 1.3 1.6 62 2.8 WNW 28 44 15 24 1008.4 1008.4 0.0
24/10:30pm 7.9 2.0 1.5 64 2.6 WNW 22 32 12 17 1008.8 1008.8 0.0
24/10:00pm 8.1 1.0 1.5 63 2.7 WNW 28 37 15 20 1009.3 1009.3 0.0
24/09:30pm 8.1 1.4 1.7 64 2.6 WNW 26 37 14 20 1009.6 1009.6 0.0
24/09:00pm 8.0 2.5 1.6 64 2.6 NW 20 32 11 17 1009.7 1009.7 0.0
24/08:30pm 8.1 2.2 1.5 63 2.7 WNW 22 28 12 15 1009.7 1009.7 0.0
24/08:00pm 7.9 2.5 1.5 64 2.6 WNW 19 24 10 13 1010.0 1010.0 0.0
24/07:30pm 8.0 2.6 1.4 63 2.7 WNW 19 28 10 15 1010.0 1010.0 0.0
24/07:00pm 7.9 4.0 1.3 63 2.7 NW 11 17 6 9 1009.9 1009.9 0.0
24/06:30pm 8.0 4.1 1.4 63 2.7 WNW 11 19 6 10 1010.1 1010.1 0.0
24/06:00pm 8.1 2.7 1.0 61 2.9 WNW 19 24 10 13 1010.1 1010.1 0.0
24/05:30pm 8.3 2.7 1.0 60 2.9 WNW 20 30 11 16 1010.0 1010.0 0.0
24/05:00pm 8.5 2.9 1.2 60 3.0 WNW 20 28 11 15 1010.0 1010.0 0.0
24/04:30pm 8.5 2.5 1.2 60 3.0 WNW 22 33 12 18 1009.9 1009.9 0.0
24/04:00pm 8.6 3.0 1.3 60 3.0 WNW 20 24 11 13 1009.7 1009.7 0.0
24/03:30pm 9.0 3.4 1.4 59 3.1 W 20 28 11 15 1009.6 1009.6 0.0
24/03:00pm 8.9 2.6 1.8 61 2.9 W 24 28 13 15 1009.4 1009.4 0.0
24/02:30pm 8.9 2.8 2.5 64 2.7 WSW 24 28 13 15 1009.3 1009.3 0.0
24/02:00pm 9.3 2.8 2.9 64 2.7 WSW 26 30 14 16 1009.3 1009.3 0.0
24/01:30pm 8.8 2.2 2.2 63 2.8 W 26 32 14 17 1009.2 1009.2 0.0
24/01:00pm 9.6 3.0 2.0 59 3.2 WSW 26 30 14 16 1009.4 1009.4 0.0
24/12:30pm 8.8 3.4 1.2 59 3.1 W 19 28 10 15 1009.7 1009.7 0.0
24/12:00pm 9.3 3.4 1.9 60 3.1 W 22 32 12 17 1010.0 1010.0 0.0
24/11:30am 8.6 2.9 0.8 58 3.1 W 20 28 11 15 1010.2 1010.2 0.0
24/11:00am 8.2 3.0 0.4 58 3.1 WNW 17 26 9 14 1010.5 1010.5 0.0
24/10:30am 7.8 3.0 0.3 59 3.0 WNW 15 22 8 12 1010.7 1010.7 0.0
24/10:00am 7.7 4.1 0.4 60 2.9 NW 9 13 5 7 1010.6 1010.6 0.0
24/09:30am 6.6 1.0 0.1 63 2.5 WNW 19 26 10 14 1010.3 1010.3 0.0
24/09:00am 6.5 1.3 0.0 63 2.5 WNW 17 22 9 12 1009.9 1009.9 1.0
24/08:30am 5.8 0.2 -0.3 65 2.3 WNW 19 28 10 15 1009.7 1009.7 1.0
24/08:00am 5.2 -0.4 -0.2 68 2.1 WNW 19 26 10 14 1009.4 1009.4 1.0
24/07:30am 5.0 0.1 -0.6 67 2.1 NW 15 20 8 11 1009.2 1009.2 1.0
24/07:00am 5.1 -0.5 -0.1 69 2.0 WNW 19 30 10 16 1009.2 1009.2 1.0
24/06:30am 4.9 -1.7 -0.7 67 2.1 WNW 24 35 13 19 1008.6 1008.6 1.0
24/06:00am 5.2 -1.1 -1.0 64 2.3 WNW 22 30 12 16 1008.3 1008.3 1.0
24/05:30am 5.1 -0.9 -1.3 63 2.4 WNW 20 26 11 14 1008.0 1008.0 1.0
24/05:00am 5.0 -1.0 -1.4 63 2.4 WNW 20 28 11 15 1007.9 1007.9 1.0
24/04:30am 5.3 -0.8 -2.0 59 2.6 WNW 20 32 11 17 1007.8 1007.8 1.0
24/04:00am 5.2 -0.8 -1.9 60 2.6 WNW 20 28 11 15 1007.5 1007.5 1.0
24/03:30am 4.5 -1.3 -1.7 64 2.2 NW 19 26 10 14 1007.4 1007.4 1.0
24/03:00am 5.0 -1.0 -1.4 63 2.4 WNW 20 32 11 17 1007.2 1007.2 1.0
24/02:30am 4.7 -1.2 -0.7 68 2.0 WNW 20 28 11 15 1007.1 1007.1 1.0
24/02:00am 6.2 -2.2 1.3 71 2.0 W 35 41 19 22 1006.7 1006.7 1.0
24/01:30am 6.0 -3.9 1.5 73 1.8 WSW 43 50 23 27 1006.5 1006.5 1.0
24/01:00am 5.0 -2.1 1.5 78 1.4 W 28 41 15 22 1006.4 1006.4 1.0
24/12:30am 5.4 -3.3 1.9 78 1.4 W 37 50 20 27 1006.0 1006.0 1.0
24/12:00am 4.9 -4.2 1.9 81 1.2 W 39 46 21 25 1006.1 1006.1 1.0
 
Date/Time
EST
Temp
°C
App
Temp
°C
Dew
Point
°C
Rel
Hum
%
Delta-T
°C
Wind Press
QNH
hPa
Press
MSL
hPa
Rain since
9am
mm
Dir  Spd
km/h
Gust
km/h
Spd
kts
Gust
kts
23/11:56pm 5.1 -4.8 1.9 80 1.3 WSW 43 61 23 33 1006.2 1006.2 1.0
23/11:47pm 6.5 -3.8 2.4 75 1.7 WSW 46 61 25 33 1006.4 1006.4 0.8
23/11:30pm 5.5 -1.6 1.6 76 1.6 W 28 39 15 21 1006.1 1006.1 0.8
23/11:00pm 6.4 -2.6 2.3 75 1.7 W 39 48 21 26 1005.3 1005.3 0.8
23/10:30pm 6.5 -4.3 2.0 73 1.8 W 48 57 26 31 1005.0 1005.0 0.8
23/10:00pm 7.1 -3.0 1.8 69 2.2 WSW 44 57 24 31 1004.5 1004.5 0.8
23/09:30pm 7.5 -3.7 1.6 66 2.4 WSW 50 57 27 31 1003.7 1003.7 0.8
23/09:00pm 7.8 -3.1 1.2 63 2.7 WSW 48 59 26 32 1003.1 1003.1 0.8
23/08:53pm 7.9 -1.3 1.3 63 2.7 WSW 39 59 21 32 1003.3 1003.3 0.8
23/08:45pm 8.2 0.3 2.0 65 2.6 WSW 33 43 18 23 1003.5 1003.5 0.8
23/08:30pm 6.8 1.8 1.3 68 2.2 W 17 24 9 13 1003.5 1003.5 0.8
23/08:00pm 7.6 -0.5 0.8 62 2.7 W 33 46 18 25 1003.2 1003.2 0.8
23/07:30pm 8.5 -0.6 2.1 64 2.7 WSW 39 50 21 27 1002.7 1002.7 0.8
23/07:15pm 8.4 -0.3 1.8 63 2.7 WSW 37 57 20 31 1002.6 1002.6 0.8
23/07:00pm 8.4 -0.6 2.4 66 2.5 WSW 39 46 21 25 1002.7 1002.7 0.8
23/06:37pm 8.3 -1.9 3.0 69 2.2 WSW 46 56 25 30 1002.5 1002.5 0.8
23/06:30pm 8.3 -4.0 3.0 69 2.2 WSW 57 70 31 38 1002.5 1002.5 0.8
23/06:10pm 8.8 -2.6 3.0 67 2.5 WSW 52 72 28 39 1001.6 1001.6 0.8
23/06:04pm 8.7 0.1 4.5 75 1.9 WSW 39 59 21 32 1001.6 1001.6 0.8
23/06:00pm 8.8 1.1 5.4 79 1.5 WSW 35 44 19 24 1001.7 1001.7 0.8
23/05:30pm 8.9 -0.1 6.3 84 1.2 WSW 43 57 23 31 1000.8 1000.8 0.6
23/05:18pm 10.0 2.5 6.2 77 1.8 W 35 48 19 26 1000.4 1000.4 0.4
23/05:00pm 10.4 5.8 5.4 71 2.3 WNW 19 30 10 16 1000.0 1000.0 0.0
23/04:30pm 10.8 5.9 5.1 68 2.6 NW 20 30 11 16 999.4 999.4 0.0
23/04:00pm 11.7 5.5 6.0 68 2.7 WNW 28 43 15 23 999.7 999.7 0.0
23/03:45pm 11.8 5.1 5.4 65 3.0 WNW 30 48 16 26 999.6 999.6 0.0
23/03:30pm 11.6 5.4 6.1 69 2.6 WNW 28 39 15 21 999.5 999.5 0.0
23/03:00pm 13.6 3.5 5.5 58 3.8 WNW 48 69 26 37 999.4 999.4 0.0
23/02:32pm 15.8 8.7 3.3 43 5.7 WNW 30 54 16 29 998.8 998.8 0.0
23/02:30pm 15.9 9.2 3.4 43 5.7 WNW 28 43 15 23 998.8 998.8 0.0
23/02:02pm 15.8 7.7 3.3 43 5.7 WNW 35 56 19 30 999.4 999.4 0.0
23/02:00pm 15.9 7.4 3.4 43 5.8 NW 37 56 20 30 999.5 999.5 0.0
23/01:42pm 15.9 9.9 3.4 43 5.7 NW 24 48 13 26 999.7 999.7 0.0
23/01:30pm 16.1 10.3 4.2 45 5.5 WNW 24 43 13 23 999.8 999.8 0.0
23/01:00pm 15.8 7.8 3.6 44 5.6 WNW 35 57 19 31 1000.5 1000.5 0.0
23/12:31pm 15.8 8.8 4.2 46 5.4 NW 30 50 16 27 1001.1 1001.1 0.0
23/12:30pm 15.7 8.6 3.8 45 5.5 NW 30 46 16 25 1001.2 1001.2 0.0
23/12:23pm 15.8 8.3 4.2 46 5.4 WNW 33 52 18 28 1001.5 1001.5 0.0
23/12:15pm 15.6 9.4 4.3 47 5.3 NW 26 50 14 27 1001.7 1001.7 0.0
23/12:00pm 14.5 9.7 4.5 51 4.7 NW 19 35 10 19 1002.1 1002.1 0.0
23/11:30am 15.1 9.6 3.9 47 5.1 NW 22 46 12 25 1003.1 1003.1 0.0
23/11:25am 15.1 8.5 4.2 48 5.0 NW 28 46 15 25 1003.3 1003.3 0.0
23/11:00am 14.7 8.4 3.8 48 5.0 NW 26 43 14 23 1004.0 1004.0 0.0
23/10:37am 14.5 7.8 3.6 48 5.0 NNW 28 50 15 27 1004.3 1004.3 0.0
23/10:30am 14.5 8.2 3.9 49 4.8 NW 26 48 14 26 1004.7 1004.7 0.0
23/10:23am 14.3 7.6 3.5 48 4.9 NW 28 50 15 27 1004.9 1004.9 0.0
23/10:00am 13.5 9.2 5.2 57 3.9 NNW 17 33 9 18 1005.5 1005.5 0.0
23/09:30am 9.2 6.4 5.2 76 1.8 N 9 15 5 8 1006.2 1006.2 0.0
23/09:00am 10.0 7.7 4.6 69 2.4 NNW 6 11 3 6 1006.7 1006.7 0.0
23/08:30am 10.2 7.4 5.2 71 2.3 NNW 9 15 5 8 1007.3 1007.3 0.0
23/08:00am 9.2 5.7 5.6 78 1.6 ENE 13 17 7 9 1007.6 1007.6 0.0
23/07:30am 8.8 6.1 5.4 79 1.5 ENE 9 15 5 8 1008.2 1008.2 0.0
23/07:00am 9.0 5.5 5.4 78 1.6 NE 13 19 7 10 1008.8 1008.8 0.0
23/06:30am 9.0 6.1 4.6 74 1.9 NNE 9 15 5 8 1008.6 1008.6 0.0
23/06:00am 9.2 4.8 4.8 74 2.0 N 17 24 9 13 1008.5 1008.5 0.0
23/05:30am 8.3 3.5 4.7 78 1.6 NE 19 24 10 13 1008.9 1008.9 0.0
23/05:00am 7.7 3.6 4.3 79 1.5 NE 15 22 8 12 1009.5 1009.5 0.0
23/04:30am 8.0 3.6 4.6 79 1.5 NE 17 24 9 13 1010.1 1010.1 0.0
23/04:00am 7.4 3.3 4.2 80 1.4 NNE 15 24 8 13 1010.5 1010.5 0.0
23/03:30am 7.7 3.2 4.3 79 1.5 NE 17 24 9 13 1011.2 1011.2 0.0
23/03:00am 7.2 2.6 3.8 79 1.5 NE 17 24 9 13 1011.8 1011.8 0.0
23/02:30am 6.8 2.9 3.6 80 1.4 NNE 13 19 7 10 1012.7 1012.8 0.0
23/02:00am 6.2 1.8 2.8 79 1.4 NNE 15 19 8 10 1012.9 1013.0 0.0
23/01:30am 7.2 2.2 3.4 77 1.6 NNE 19 22 10 12 1013.4 1013.5 0.0
23/01:00am 7.2 2.5 3.1 75 1.7 NNE 17 20 9 11 1013.8 1013.9 0.0
23/12:30am 6.8 2.4 2.7 75 1.7 NNE 15 19 8 10 1014.1 1014.2 0.0
23/12:00am 7.2 2.1 2.9 74 1.8 NE 19 24 10 13 1014.6 1014.7 0.0
 
Date/Time
EST
Temp
°C
App
Temp
°C
Dew
Point
°C
Rel
Hum
%
Delta-T
°C
Wind Press
QNH
hPa
Press
MSL
hPa
Rain since
9am
mm
Dir  Spd
km/h
Gust
km/h
Spd
kts
Gust
kts
22/11:30pm 6.8 2.7 2.5 74 1.8 NNE 13 24 7 13 1015.2 1015.3 0.0
22/11:00pm 6.4 2.9 1.5 71 2.0 N 9 15 5 8 1015.9 1016.0 0.0
22/10:30pm 5.7 2.5 0.9 71 1.9 N 7 9 4 5 1016.3 1016.4 0.0
22/10:00pm 7.3 3.9 1.6 67 2.3 N 9 13 5 7 1016.7 1016.8 0.0
22/09:30pm 5.8 1.9 1.0 71 1.9 NNE 11 19 6 10 1017.1 1017.2 0.0
22/09:00pm 6.2 2.4 1.5 72 1.9 NNE 11 15 6 8 1017.4 1017.5 0.0
22/08:30pm 6.4 1.8 1.7 72 1.9 NNE 15 19 8 10 1017.5 1017.6 0.0
22/08:00pm 6.6 2.4 1.9 72 1.9 NNE 13 19 7 10 1017.7 1017.8 0.0
22/07:30pm 7.0 1.8 2.3 72 1.9 NNE 19 24 10 13 1018.0 1018.1 0.0
22/07:00pm 6.7 2.5 1.8 71 2.0 NW 13 17 7 9 1018.4 1018.5 0.0
22/06:30pm 6.7 2.9 2.0 72 1.9 NW 11 15 6 8 1018.8 1018.9 0.0
22/06:00pm 6.5 3.5 1.8 72 1.9 NW 7 9 4 5 1019.0 1019.1 0.0
22/05:30pm 7.1 4.3 1.8 69 2.2 NW 6 9 3 5 1019.3 1019.4 0.0

Latest Capital City Observations: Canberra | Sydney | Melbourne | Brisbane | Adelaide | Perth | Hobart | Darwin

Other Formats:

Comma delimited format used in spreadsheet applications
http://www.bom.gov.au/fwo/IDT60901/IDT60901.94951.axf

JavaScript Object Notation format (JSON) in row-major order
http://www.bom.gov.au/fwo/IDT60901/IDT60901.94951.json